createdAt,value
2022-12-01T00:00:55.155Z,102726.09
2022-12-01T00:04:17.014Z,102728.69
2022-12-01T00:07:38.996Z,102732.22
2022-12-01T00:11:05.948Z,102724.38
2022-12-01T00:14:27.870Z,102729.59
2022-12-01T00:17:50.354Z,102731.38
2022-12-01T00:21:15.420Z,102721.75
2022-12-01T00:24:37.005Z,102725.28
2022-12-01T00:28:00.305Z,102728.81
2022-12-01T00:31:23.246Z,102728.78
2022-12-01T00:34:45.382Z,102727.91
2022-12-01T00:38:07.090Z,102727.97
2022-12-01T00:41:29.037Z,102726.19
2022-12-01T00:44:51.850Z,102719.16
2022-12-01T00:48:13.827Z,102727.06
2022-12-01T00:51:35.567Z,102729.75
2022-12-01T00:54:57.347Z,102724.50
2022-12-01T00:58:19.036Z,102736.81
2022-12-01T01:01:42.325Z,102731.56
2022-12-01T01:05:04.211Z,102730.72
2022-12-01T01:08:25.795Z,102738.63
2022-12-01T01:11:47.693Z,102731.63
2022-12-01T01:15:10.053Z,102740.41
2022-12-01T01:18:33.846Z,102744.78
2022-12-01T01:21:55.456Z,102745.69
2022-12-01T01:25:17.437Z,102739.56
2022-12-01T01:28:41.586Z,102748.34
2022-12-01T01:32:04.267Z,102746.63
2022-12-01T01:35:27.298Z,102751.00
2022-12-01T01:38:51.524Z,102745.72
2022-12-01T01:42:14.867Z,102744.84
2022-12-01T01:45:36.804Z,102745.75
2022-12-01T01:49:01.440Z,102744.84
2022-12-01T01:52:25.702Z,102741.31
2022-12-01T01:55:47.496Z,102745.72
2022-12-01T01:59:09.355Z,102748.38
2022-12-01T02:02:31.431Z,102748.41
2022-12-01T02:05:53.394Z,102744.91
2022-12-01T02:09:16.842Z,102751.94
2022-12-01T02:13:01.510Z,102744.94
2022-12-01T02:16:32.323Z,102742.28
2022-12-01T02:20:28.662Z,102738.78
2022-12-01T02:24:28.129Z,102739.69
2022-12-01T02:28:14.766Z,102732.66
2022-12-01T02:31:42.795Z,102743.16
2022-12-01T02:35:14.410Z,102733.53
2022-12-01T02:38:40.963Z,102733.53
2022-12-01T02:42:06.802Z,102732.63
2022-12-01T02:45:37.212Z,102732.69
2022-12-01T02:49:05.847Z,102740.59
2022-12-01T02:52:29.702Z,102739.72
2022-12-01T02:55:53.997Z,102730.09
2022-12-01T02:59:16.418Z,102734.44
2022-12-01T03:02:44.139Z,102730.13
2022-12-01T03:06:15.950Z,102731.88
2022-12-01T03:09:47.979Z,102723.13
2022-12-01T03:13:21.298Z,102734.50
2022-12-01T03:16:50.858Z,102728.41
2022-12-01T03:20:19.537Z,102732.81
2022-12-01T03:23:45.391Z,102726.69
2022-12-01T03:27:07.634Z,102734.56
2022-12-01T03:30:31.296Z,102732.00
2022-12-01T03:33:58.535Z,102727.63
2022-12-01T03:37:26.545Z,102723.22
2022-12-01T03:40:52.846Z,102721.53
2022-12-01T03:44:21.899Z,102719.88
2022-12-01T03:47:43.986Z,102721.66
2022-12-01T03:51:15.114Z,102728.66
2022-12-01T03:54:46.742Z,102740.09
2022-12-01T03:58:14.142Z,102737.44
2022-12-01T04:01:36.461Z,102734.00
2022-12-01T04:04:58.270Z,102742.75
2022-12-01T04:08:20.097Z,102740.19
2022-12-01T04:12:13.334Z,102743.66
2022-12-01T04:15:36.415Z,102742.81
2022-12-01T04:18:58.174Z,102748.06
2022-12-01T04:22:20.257Z,102747.19
2022-12-01T04:25:42.166Z,102741.97
2022-12-01T04:29:06.570Z,102742.84
2022-12-01T04:32:29.899Z,102740.25
2022-12-01T04:35:58.089Z,102744.66
2022-12-01T04:39:20.170Z,102744.66
2022-12-01T04:42:42.429Z,102756.06
2022-12-01T04:46:04.480Z,102749.91
2022-12-01T04:49:27.650Z,102754.34
2022-12-01T04:52:49.658Z,102750.84
2022-12-01T04:56:11.690Z,102757.84
2022-12-01T04:59:33.211Z,102755.16
2022-12-01T05:02:55.109Z,102758.69
2022-12-01T05:06:20.693Z,102758.75
2022-12-01T05:09:42.527Z,102756.97
2022-12-01T05:13:04.956Z,102754.38
2022-12-01T05:16:29.059Z,102759.59
2022-12-01T05:20:08.937Z,102760.44
2022-12-01T05:23:33.792Z,102754.38
2022-12-01T05:26:55.401Z,102750.88
2022-12-01T05:30:17.541Z,102762.22
2022-12-01T05:33:39.495Z,102760.47
2022-12-01T05:37:01.277Z,102763.09
2022-12-01T05:40:24.371Z,102767.47
2022-12-01T05:43:45.938Z,102767.47
2022-12-01T05:47:07.806Z,102777.13
2022-12-01T05:50:31.432Z,102782.41
2022-12-01T05:53:52.911Z,102778.91
2022-12-01T05:57:16.236Z,102788.53
2022-12-01T06:00:44.998Z,102787.66
2022-12-01T06:04:08.827Z,102792.00
2022-12-01T06:07:30.822Z,102790.28
2022-12-01T06:10:52.792Z,102789.44
2022-12-01T06:14:15.981Z,102792.06
2022-12-01T06:17:40.470Z,102794.66
2022-12-01T06:21:02.862Z,102793.78
2022-12-01T06:24:25.018Z,102804.22
2022-12-01T06:27:47.010Z,102798.94
2022-12-01T06:31:10.078Z,102797.16
2022-12-01T06:34:32.010Z,102813.81
2022-12-01T06:37:54.588Z,102803.34
2022-12-01T06:41:16.186Z,102804.25
2022-12-01T06:44:38.019Z,102806.94
2022-12-01T06:48:01.089Z,102811.31
2022-12-01T06:51:22.934Z,102809.63
2022-12-01T06:54:44.890Z,102814.88
2022-12-01T06:58:07.258Z,102808.72
2022-12-01T07:01:29.386Z,102824.50
2022-12-01T07:04:52.559Z,102814.03
2022-12-01T07:08:14.578Z,102814.91
2022-12-01T07:11:37.039Z,102821.91
2022-12-01T07:14:59.225Z,102822.81
2022-12-01T07:18:20.851Z,102817.56
2022-12-01T07:21:44.165Z,102819.34
2022-12-01T07:25:06.472Z,102824.56
2022-12-01T07:28:28.321Z,102835.97
2022-12-01T07:31:49.906Z,102835.06
2022-12-01T07:35:11.415Z,102829.84
2022-12-01T07:38:35.767Z,102840.38
2022-12-01T07:41:58.534Z,102835.13
2022-12-01T07:45:20.406Z,102842.16
2022-12-01T07:48:42.659Z,102840.41
2022-12-01T07:52:04.835Z,102847.41
2022-12-01T07:55:27.847Z,102832.47
2022-12-01T07:58:49.695Z,102835.16
2022-12-01T08:02:12.204Z,102827.28
2022-12-01T08:05:34.114Z,102836.00
2022-12-01T08:08:56.286Z,102842.19
2022-12-01T08:12:19.509Z,102832.53
2022-12-01T08:15:41.175Z,102841.31
2022-12-01T08:19:03.161Z,102837.78
2022-12-01T08:22:25.127Z,102843.03
2022-12-01T08:25:47.049Z,102836.91
2022-12-01T08:29:10.404Z,102832.47
2022-12-01T08:32:32.527Z,102842.09
2022-12-01T08:35:54.014Z,102834.22
2022-12-01T08:39:16.119Z,102846.44
2022-12-01T08:42:37.658Z,102848.19
2022-12-01T08:46:02.081Z,102842.88
2022-12-01T08:49:23.913Z,102843.78
2022-12-01T08:52:45.722Z,102846.34
2022-12-01T08:56:09.472Z,102853.34
2022-12-01T08:59:31.045Z,102847.16
2022-12-01T09:02:54.404Z,102843.59
2022-12-01T09:06:17.685Z,102846.22
2022-12-01T09:09:39.145Z,102854.94
2022-12-01T09:13:01.427Z,102854.94
2022-12-01T09:16:23.438Z,102855.78
2022-12-01T09:19:46.835Z,102849.56
2022-12-01T09:23:08.658Z,102857.47
2022-12-01T09:26:30.499Z,102844.38
2022-12-01T09:29:52.499Z,102848.69
2022-12-01T09:33:15.601Z,102841.63
2022-12-01T09:36:40.233Z,102840.75
2022-12-01T09:40:01.953Z,102835.50
2022-12-01T09:43:28.005Z,102837.22
2022-12-01T09:46:56.289Z,102833.66
2022-12-01T09:50:24.105Z,102838.00
2022-12-01T09:53:50.295Z,102839.72
2022-12-01T09:57:18.655Z,102832.69
2022-12-01T10:00:44.341Z,102821.28
2022-12-01T10:04:13.109Z,102816.00
2022-12-01T10:07:40.251Z,102809.88
2022-12-01T10:11:09.566Z,102812.47
2022-12-01T10:14:36.877Z,102802.81
2022-12-01T10:18:09.179Z,102801.91
2022-12-01T10:21:51.060Z,102796.66
2022-12-01T10:25:22.876Z,102800.13
2022-12-01T10:29:11.690Z,102806.22
2022-12-01T10:32:53.222Z,102806.28
2022-12-01T10:36:15.062Z,102799.25
2022-12-01T10:39:40.974Z,102797.44
2022-12-01T10:43:03.884Z,102798.28
2022-12-01T10:46:31.081Z,102802.69
2022-12-01T10:49:53.645Z,102805.31
2022-12-01T10:53:30.744Z,102810.53
2022-12-01T10:56:58.160Z,102798.28
2022-12-01T11:00:57.476Z,102789.47
2022-12-01T11:04:08.998Z,102800.91
2022-12-01T11:07:34.194Z,102792.13
2022-12-01T11:10:56.674Z,102791.28
2022-12-01T11:14:21.197Z,102786.03
2022-12-01T11:17:44.532Z,102786.03
2022-12-01T11:21:11.217Z,102783.38
2022-12-01T11:24:43.105Z,102789.53
2022-12-01T11:28:06.085Z,102792.13
2022-12-01T11:31:39.512Z,102791.22
2022-12-01T11:35:04.162Z,102780.63
2022-12-01T11:38:35.050Z,102783.28
2022-12-01T11:41:59.162Z,102785.91
2022-12-01T11:45:29.225Z,102791.97
2022-12-01T11:48:59.691Z,102788.47
2022-12-01T11:52:28.450Z,102787.50
2022-12-01T11:55:51.440Z,102798.03
2022-12-01T11:59:17.892Z,102791.88
2022-12-01T12:02:48.827Z,102798.88
2022-12-01T12:10:15.775Z,102784.81
2022-12-01T12:13:57.639Z,102786.56
2022-12-01T12:17:30.982Z,102783.94
2022-12-01T12:21:06.586Z,102787.50
2022-12-01T12:24:48.838Z,102785.78
2022-12-01T12:28:29.502Z,102773.50
2022-12-01T12:32:05.008Z,102774.41
2022-12-01T12:35:35.713Z,102781.41
2022-12-01T12:39:12.149Z,102786.66
2022-12-01T12:42:50.074Z,102781.41
2022-12-01T12:46:14.126Z,102789.31
2022-12-01T12:49:45.155Z,102788.47
2022-12-01T12:53:16.929Z,102783.19
2022-12-01T12:56:39.867Z,102778.78
2022-12-01T13:00:06.415Z,102773.53
2022-12-01T13:03:46.565Z,102765.69
2022-12-01T13:07:29.552Z,102762.16
2022-12-01T13:10:58.041Z,102758.56
2022-12-01T13:14:26.986Z,102757.69
2022-12-01T13:17:53.111Z,102753.31
2022-12-01T13:21:18.783Z,102755.06
2022-12-01T13:24:42.033Z,102753.25
2022-12-01T13:28:07.000Z,102745.31
2022-12-01T13:31:28.736Z,102750.56
2022-12-01T13:34:50.943Z,102756.66
2022-12-01T13:38:26.061Z,102762.78
2022-12-01T13:42:02.097Z,102759.25
2022-12-01T13:45:23.705Z,102758.38
2022-12-01T13:48:53.668Z,102760.16
2022-12-01T13:52:33.775Z,102766.28
2022-12-01T13:56:20.878Z,102761.91
2022-12-01T14:00:07.955Z,102761.84
2022-12-01T14:03:41.603Z,102763.59
2022-12-01T14:07:40.114Z,102753.06
2022-12-01T14:11:04.535Z,102755.66
2022-12-01T14:14:29.312Z,102748.63
2022-12-01T14:18:02.521Z,102748.63
2022-12-01T14:21:47.930Z,102752.16
2022-12-01T14:25:25.702Z,102748.63
2022-12-01T14:29:24.725Z,102751.25
2022-12-01T14:32:46.611Z,102755.63
2022-12-01T14:36:16.441Z,102756.53
2022-12-01T14:39:42.348Z,102761.84
2022-12-01T14:43:23.782Z,102756.53
2022-12-01T14:46:50.263Z,102768.00
2022-12-01T14:50:17.897Z,102761.06
2022-12-01T14:53:45.750Z,102759.28
2022-12-01T14:57:13.693Z,102763.72
2022-12-01T15:00:39.368Z,102764.56
2022-12-01T15:04:04.430Z,102762.78
2022-12-01T15:07:26.077Z,102754.00
2022-12-01T15:10:55.367Z,102754.00
2022-12-01T15:14:26.332Z,102749.59
2022-12-01T15:17:48.475Z,102746.97
2022-12-01T15:21:14.171Z,102753.94
2022-12-01T15:24:36.422Z,102746.00
2022-12-01T15:28:15.082Z,102749.50
2022-12-01T15:31:37.269Z,102751.25
2022-12-01T15:35:01.920Z,102750.34
2022-12-01T15:38:27.743Z,102753.00
2022-12-01T15:41:54.117Z,102746.84
2022-12-01T15:45:20.942Z,102737.19
2022-12-01T15:48:43.391Z,102743.28
2022-12-01T15:52:08.863Z,102747.66
2022-12-01T15:55:33.232Z,102745.91
2022-12-01T15:58:58.823Z,102750.28
2022-12-01T16:02:29.028Z,102743.28
2022-12-01T16:05:51.010Z,102744.06
2022-12-01T16:09:22.650Z,102742.31
2022-12-01T16:12:44.432Z,102739.69
2022-12-01T16:16:23.416Z,102745.88
2022-12-01T16:19:47.865Z,102737.97
2022-12-01T16:23:12.716Z,102740.59
2022-12-01T16:26:34.998Z,102745.03
2022-12-01T16:29:59.079Z,102738.03
2022-12-01T16:33:24.030Z,102740.66
2022-12-01T16:36:47.227Z,102733.63
2022-12-01T16:40:11.459Z,102735.41
2022-12-01T16:43:33.227Z,102732.75
2022-12-01T16:46:55.164Z,102738.03
2022-12-01T16:50:17.859Z,102737.97
2022-12-01T16:53:41.034Z,102736.22
2022-12-01T16:57:02.831Z,102735.34
2022-12-01T17:00:25.166Z,102734.44
2022-12-01T17:03:47.418Z,102733.53
2022-12-01T17:07:09.607Z,102745.78
2022-12-01T17:10:32.858Z,102734.38
2022-12-01T17:13:54.461Z,102726.47
2022-12-01T17:17:16.618Z,102729.94
2022-12-01T17:20:38.712Z,102729.03
2022-12-01T17:24:00.289Z,102733.41
2022-12-01T17:27:23.302Z,102726.38
2022-12-01T17:30:44.952Z,102730.78
2022-12-01T17:34:06.757Z,102736.00
2022-12-01T17:37:29.657Z,102732.47
2022-12-01T17:41:01.884Z,102730.69
2022-12-01T17:44:25.114Z,102725.41
2022-12-01T17:47:47.246Z,102723.63
2022-12-01T17:51:09.806Z,102719.31
2022-12-01T17:54:31.546Z,102726.38
2022-12-01T17:57:53.408Z,102723.72
2022-12-01T18:01:19.418Z,102718.50
2022-12-01T18:04:41.824Z,102716.78
2022-12-01T18:08:03.805Z,102721.19
2022-12-01T18:11:25.722Z,102720.31
2022-12-01T18:14:47.878Z,102720.38
2022-12-01T18:18:11.024Z,102725.63
2022-12-01T18:21:32.631Z,102733.53
2022-12-01T18:24:54.193Z,102726.50
2022-12-01T18:28:16.172Z,102730.00
2022-12-01T18:31:38.846Z,102727.38
2022-12-01T18:35:01.966Z,102723.09
2022-12-01T18:38:24.935Z,102723.97
2022-12-01T18:41:46.863Z,102724.81
2022-12-01T18:45:09.594Z,102724.81
2022-12-01T18:48:31.742Z,102732.69
2022-12-01T18:51:54.931Z,102727.44
2022-12-01T18:55:16.598Z,102735.34
2022-12-01T18:58:38.663Z,102730.09
2022-12-01T19:02:00.526Z,102721.34
2022-12-01T19:05:22.570Z,102716.97
2022-12-01T19:08:45.736Z,102726.59
2022-12-01T19:12:08.463Z,102713.44
2022-12-01T19:15:30.180Z,102716.94
2022-12-01T19:18:52.170Z,102714.34
2022-12-01T19:22:14.164Z,102714.34
2022-12-01T19:25:37.859Z,102711.72
2022-12-01T19:29:00.465Z,102713.44
2022-12-01T19:32:24.324Z,102706.41
2022-12-01T19:35:46.210Z,102709.94
2022-12-01T19:39:08.362Z,102715.19
2022-12-01T19:42:33.054Z,102712.56
2022-12-01T19:45:54.720Z,102719.53
2022-12-01T19:49:16.346Z,102723.91
2022-12-01T19:52:38.916Z,102723.00
2022-12-01T19:56:02.843Z,102726.47
2022-12-01T19:59:26.159Z,102733.47
2022-12-01T20:02:47.799Z,102734.38
2022-12-01T20:06:11.892Z,102740.47
2022-12-01T20:09:33.701Z,102741.28
2022-12-01T20:12:55.349Z,102744.00
2022-12-01T20:16:20.017Z,102743.94
2022-12-01T20:19:41.696Z,102744.81
2022-12-01T20:23:03.544Z,102740.44
2022-12-01T20:26:30.437Z,102741.34
2022-12-01T20:29:52.635Z,102747.44
2022-12-01T20:33:16.633Z,102751.81
2022-12-01T20:36:40.550Z,102750.91
2022-12-01T20:40:02.867Z,102746.53
2022-12-01T20:43:24.760Z,102739.50
2022-12-01T20:46:47.590Z,102739.50
2022-12-01T20:50:11.709Z,102734.22
2022-12-01T20:53:34.332Z,102727.16
2022-12-01T20:56:56.205Z,102731.53
2022-12-01T21:00:18.433Z,102738.59
2022-12-01T21:03:42.014Z,102731.59
2022-12-01T21:07:05.463Z,102733.31
2022-12-01T21:10:27.578Z,102725.38
2022-12-01T21:13:48.579Z,102727.94
2022-12-01T21:17:24.544Z,102727.03
2022-12-01T21:20:49.796Z,102726.19
2022-12-01T21:24:17.065Z,102720.03
2022-12-01T21:27:38.728Z,102722.66
2022-12-01T21:31:08.300Z,102720.03
2022-12-01T21:34:30.596Z,102719.06
2022-12-01T21:37:59.250Z,102727.00
2022-12-01T21:41:27.222Z,102726.13
2022-12-01T21:44:49.706Z,102726.13
2022-12-01T21:48:16.908Z,102726.13
2022-12-01T21:51:38.959Z,102722.59
2022-12-01T21:55:03.454Z,102720.88
2022-12-01T21:58:30.211Z,102717.38
2022-12-01T22:01:54.684Z,102718.28
2022-12-01T22:05:28.322Z,102719.13
2022-12-01T22:08:52.439Z,102715.59
2022-12-01T22:12:25.450Z,102708.59
2022-12-01T22:15:48.779Z,102706.81
2022-12-01T22:19:25.929Z,102711.22
2022-12-01T22:22:47.868Z,102706.78
2022-12-01T22:26:17.506Z,102707.69
2022-12-01T22:29:43.023Z,102703.28
2022-12-01T22:33:11.950Z,102698.00
2022-12-01T22:36:34.386Z,102701.53
2022-12-01T22:39:57.481Z,102702.44
2022-12-01T22:43:30.999Z,102693.66
2022-12-01T22:46:53.228Z,102700.78
2022-12-01T22:50:27.425Z,102694.63
2022-12-01T22:53:49.933Z,102695.44
2022-12-01T22:57:25.120Z,102697.19
2022-12-01T23:00:46.968Z,102690.19
2022-12-01T23:04:27.564Z,102686.63
2022-12-01T23:07:51.425Z,102691.00
2022-12-01T23:11:13.573Z,102694.47
2022-12-01T23:14:35.773Z,102683.94
2022-12-01T23:17:59.911Z,102682.22
2022-12-01T23:21:21.411Z,102684.84
2022-12-01T23:24:45.031Z,102675.22
2022-12-01T23:28:08.886Z,102674.31
2022-12-01T23:31:31.064Z,102679.56
2022-12-01T23:34:58.400Z,102675.13
2022-12-01T23:38:24.598Z,102667.28
2022-12-01T23:41:51.171Z,102665.47
2022-12-01T23:45:17.650Z,102665.53
2022-12-01T23:48:42.675Z,102662.84
2022-12-01T23:52:05.263Z,102665.47
2022-12-01T23:55:29.631Z,102653.22
2022-12-01T23:58:53.802Z,102654.06
